Time;durP1;ratioP1;P1;durP2;ratioP2;P2;SDS_P1;SDS_P2;PMS_P1;PMS_P2;Temp;Humidity;BMP_temperature;BMP_pressure;BME280_temperature;BME280_humidity;BME280_pressure;Samples;Min_cycle;Max_cycle;Signal;HPM_P1;HPM_P2
2021/11/21 00:02:08;0.00;0.00;0.62;0.00;0.00;0.62;3.27;2.97;;;23.50;31.50;;;;;;2248898;61;20368;-68
2021/11/21 00:04:53;0.00;0.00;0.62;0.00;0.00;0.62;3.27;2.63;;;23.50;31.50;;;;;;2249326;61;20392;-68
2021/11/21 00:07:38;0.00;0.00;0.62;0.00;0.00;0.62;3.57;3.10;;;23.50;31.50;;;;;;2248621;61;20430;-68
2021/11/21 00:10:22;0.00;0.00;0.62;0.00;0.00;0.62;3.73;3.37;;;23.50;31.50;;;;;;2249567;61;20365;-67
2021/11/21 00:13:08;0.00;0.00;0.62;0.00;0.00;0.62;4.73;3.20;;;23.50;31.50;;;;;;2249642;61;20484;-69
2021/11/21 00:15:53;0.00;0.00;0.62;0.00;0.00;0.62;4.47;3.70;;;23.50;31.50;;;;;;2248021;61;20380;-69
2021/11/21 00:18:40;0.00;0.00;0.62;0.00;0.00;0.62;4.20;3.60;;;23.50;31.60;;;;;;2249611;61;20365;-69
2021/11/21 00:21:25;0.00;0.00;0.62;0.00;0.00;0.62;6.10;3.80;;;23.50;31.60;;;;;;2248881;61;20376;-69
2021/11/21 00:24:10;0.00;0.00;0.62;0.00;0.00;0.62;3.93;3.53;;;23.50;31.60;;;;;;2248754;61;20404;-68
2021/11/21 00:27:09;0.00;0.00;0.62;0.00;0.00;0.62;3.83;3.50;;;23.50;31.60;;;;;;2249408;61;20588;-68
2021/11/21 00:29:54;0.00;0.00;0.62;0.00;0.00;0.62;3.97;3.43;;;23.50;31.60;;;;;;2243303;61;20364;-69
2021/11/21 00:32:39;0.00;0.00;0.62;0.00;0.00;0.62;3.20;2.90;;;23.60;31.60;;;;;;2249605;61;20384;-69
2021/11/21 00:35:25;0.00;0.00;0.62;0.00;0.00;0.62;3.23;2.90;;;23.50;31.50;;;;;;2249482;61;20759;-69
2021/11/21 00:38:12;0.00;0.00;0.62;0.00;0.00;0.62;4.13;3.73;;;23.60;31.60;;;;;;2248495;61;20368;-69
2021/11/21 00:40:57;0.00;0.00;0.62;0.00;0.00;0.62;4.03;3.63;;;23.50;31.50;;;;;;2249637;61;20408;-69
2021/11/21 00:43:41;0.00;0.00;0.62;0.00;0.00;0.62;4.40;3.80;;;23.50;31.50;;;;;;2249067;61;20364;-69
2021/11/21 00:46:26;0.00;0.00;0.62;0.00;0.00;0.62;3.00;2.70;;;23.50;31.50;;;;;;2248658;61;20472;-68
2021/11/21 00:49:16;0.00;0.00;0.62;0.00;0.00;0.62;3.63;3.27;;;23.60;31.60;;;;;;2249510;61;20381;-69
2021/11/21 00:52:03;0.00;0.00;0.62;0.00;0.00;0.62;3.87;3.57;;;23.50;31.50;;;;;;2248767;61;20590;-69
2021/11/21 00:57:33;0.00;0.00;0.62;0.00;0.00;0.62;5.40;4.90;;;23.60;31.60;;;;;;2249442;61;20381;-69
2021/11/21 01:00:18;0.00;0.00;0.62;0.00;0.00;0.62;6.53;4.80;;;23.60;31.60;;;;;;2248254;61;20576;-69
2021/11/21 01:03:03;0.00;0.00;0.62;0.00;0.00;0.62;6.40;5.60;;;23.60;31.60;;;;;;2249768;61;20349;-68
2021/11/21 01:05:49;0.00;0.00;0.62;0.00;0.00;0.62;9.40;7.80;;;23.60;31.50;;;;;;2249491;61;20392;-67
2021/11/21 01:08:35;0.00;0.00;0.62;0.00;0.00;0.62;8.93;8.03;;;23.60;31.30;;;;;;2249196;61;20433;-68
2021/11/21 01:11:20;0.00;0.00;0.62;0.00;0.00;0.62;10.10;9.10;;;23.50;31.00;;;;;;2249773;61;20361;-68
2021/11/21 01:14:06;0.00;0.00;0.62;0.00;0.00;0.62;10.20;9.10;;;23.50;30.80;;;;;;2248912;61;20724;-68
2021/11/21 01:16:50;0.00;0.00;0.62;0.00;0.00;0.62;10.30;9.00;;;23.50;30.80;;;;;;2249565;61;20401;-67
2021/11/21 01:19:35;0.00;0.00;0.62;0.00;0.00;0.62;12.03;10.70;;;23.40;30.60;;;;;;2249699;61;20361;-67
2021/11/21 01:22:20;0.00;0.00;0.62;0.00;0.00;0.62;11.20;9.70;;;23.40;30.40;;;;;;2248390;61;20774;-67
2021/11/21 01:25:10;0.00;0.00;0.62;0.00;0.00;0.62;13.10;10.87;;;23.40;30.40;;;;;;2249607;61;20732;-67
2021/11/21 01:27:56;0.00;0.00;0.62;0.00;0.00;0.62;11.97;10.80;;;23.30;30.20;;;;;;2249273;61;20773;-68
2021/11/21 01:30:43;0.00;0.00;0.62;0.00;0.00;0.62;11.70;10.17;;;23.30;30.30;;;;;;2249218;61;20396;-68
2021/11/21 01:33:28;0.00;0.00;0.62;0.00;0.00;0.62;13.70;12.27;;;23.20;30.20;;;;;;2249643;61;20417;-68
2021/11/21 01:36:12;0.00;0.00;0.62;0.00;0.00;0.62;13.07;11.67;;;23.20;30.20;;;;;;2248673;61;20412;-68
2021/11/21 01:38:57;0.00;0.00;0.62;0.00;0.00;0.62;12.63;11.30;;;23.20;30.10;;;;;;2249374;61;20365;-68
2021/11/21 01:41:43;0.00;0.00;0.62;0.00;0.00;0.62;14.33;12.67;;;23.10;30.00;;;;;;2249697;61;20724;-69
2021/11/21 01:44:28;0.00;0.00;0.62;0.00;0.00;0.62;13.77;12.27;;;23.10;30.00;;;;;;2248203;61;20723;-68
2021/11/21 01:47:13;0.00;0.00;0.62;0.00;0.00;0.62;14.60;13.10;;;23.00;29.90;;;;;;2249577;61;20377;-69
2021/11/21 01:49:58;0.00;0.00;0.62;0.00;0.00;0.62;12.57;11.27;;;22.90;29.90;;;;;;2249496;61;20584;-68
2021/11/21 01:52:43;0.00;0.00;0.62;0.00;0.00;0.62;13.80;12.43;;;22.90;30.00;;;;;;2248893;61;20384;-69
2021/11/21 01:55:30;0.00;0.00;0.62;0.00;0.00;0.62;13.97;12.03;;;22.90;30.00;;;;;;2249532;61;20440;-68
2021/11/21 01:58:16;0.00;0.00;0.62;0.00;0.00;0.62;13.43;11.93;;;22.80;30.00;;;;;;2248923;61;20357;-69
2021/11/21 02:01:01;0.00;0.00;0.62;0.00;0.00;0.62;14.50;12.20;;;22.80;30.00;;;;;;2249048;61;20618;-69
2021/11/21 02:03:46;0.00;0.00;0.62;0.00;0.00;0.62;16.20;13.20;;;22.80;30.00;;;;;;2249752;61;20423;-68
2021/11/21 02:06:31;0.00;0.00;0.62;0.00;0.00;0.62;15.50;13.50;;;22.70;29.90;;;;;;2248248;61;20449;-68
2021/11/21 02:09:15;0.00;0.00;0.62;0.00;0.00;0.62;13.53;12.13;;;22.70;29.90;;;;;;2249298;61;20614;-69
2021/11/21 02:12:00;0.00;0.00;0.62;0.00;0.00;0.62;11.97;10.73;;;22.70;29.90;;;;;;2249475;61;20388;-69
2021/11/21 02:14:46;0.00;0.00;0.62;0.00;0.00;0.62;15.47;13.60;;;22.60;29.90;;;;;;2248583;61;20421;-68
2021/11/21 02:17:31;0.00;0.00;0.62;0.00;0.00;0.62;13.10;11.60;;;22.60;29.80;;;;;;2249741;61;20375;-68
2021/11/21 02:20:18;0.00;0.00;0.62;0.00;0.00;0.62;12.83;11.30;;;22.50;29.80;;;;;;2248950;61;20752;-68
2021/11/21 02:23:06;0.00;0.00;0.62;0.00;0.00;0.62;14.43;12.90;;;22.50;29.80;;;;;;2248939;61;20468;-68
2021/11/21 02:25:52;0.00;0.00;0.62;0.00;0.00;0.62;13.37;12.07;;;22.50;29.90;;;;;;2249625;61;20636;-67
2021/11/21 02:28:37;0.00;0.00;0.62;0.00;0.00;0.62;13.50;12.10;;;22.40;29.80;;;;;;2247665;61;20361;-68
2021/11/21 02:31:23;0.00;0.00;0.62;0.00;0.00;0.62;13.20;11.53;;;22.40;29.90;;;;;;2249662;61;20405;-68
2021/11/21 02:34:08;0.00;0.00;0.62;0.00;0.00;0.62;13.40;12.00;;;22.40;30.00;;;;;;2249616;61;20396;-68
2021/11/21 02:36:53;0.00;0.00;0.62;0.00;0.00;0.62;13.57;11.77;;;22.40;30.00;;;;;;2248716;61;20485;-67
2021/11/21 02:39:40;0.00;0.00;0.62;0.00;0.00;0.62;12.43;11.13;;;22.40;30.00;;;;;;2249951;61;20760;-70
2021/11/21 02:42:29;0.00;0.00;0.62;0.00;0.00;0.62;12.90;11.60;;;22.40;30.00;;;;;;2248861;61;20748;-69
2021/11/21 02:45:17;0.00;0.00;0.62;0.00;0.00;0.62;12.37;11.13;;;22.30;30.00;;;;;;2248743;61;20396;-68
2021/11/21 02:48:02;0.00;0.00;0.62;0.00;0.00;0.62;12.90;11.70;;;22.30;30.00;;;;;;2249890;61;20433;-68
2021/11/21 02:50:47;0.00;0.00;0.62;0.00;0.00;0.62;12.67;11.37;;;22.30;30.00;;;;;;2248719;61;20728;-69
2021/11/21 02:53:35;0.00;0.00;0.62;0.00;0.00;0.62;13.77;12.07;;;22.30;30.00;;;;;;2250281;61;20380;-69
2021/11/21 02:56:21;0.00;0.00;0.62;0.00;0.00;0.62;12.67;10.93;;;22.30;30.00;;;;;;2250200;61;20519;-69
2021/11/21 02:59:06;0.00;0.00;0.62;0.00;0.00;0.62;12.60;11.30;;;22.30;30.00;;;;;;2248652;61;20590;-69
2021/11/21 03:01:51;0.00;0.00;0.62;0.00;0.00;0.62;12.13;10.77;;;22.30;30.00;;;;;;2250353;61;20584;-69
2021/11/21 03:04:37;0.00;0.00;0.62;0.00;0.00;0.62;11.73;10.53;;;22.20;30.00;;;;;;2249178;61;20428;-69
2021/11/21 03:07:21;0.00;0.00;0.62;0.00;0.00;0.62;14.20;12.13;;;22.20;30.00;;;;;;2249548;61;20628;-69
2021/11/21 03:10:10;0.00;0.00;0.62;0.00;0.00;0.62;12.00;10.80;;;22.20;30.00;;;;;;2250307;61;20576;-69
2021/11/21 03:12:58;0.00;0.00;0.62;0.00;0.00;0.62;11.90;10.70;;;22.20;30.00;;;;;;2248850;61;20440;-69
2021/11/21 03:15:43;0.00;0.00;0.62;0.00;0.00;0.62;10.80;9.73;;;22.20;30.00;;;;;;2250318;61;20476;-68
2021/11/21 03:18:28;0.00;0.00;0.62;0.00;0.00;0.62;12.87;11.50;;;22.10;30.00;;;;;;2250134;61;20399;-68
2021/11/21 03:21:12;0.00;0.00;0.62;0.00;0.00;0.62;11.57;10.13;;;22.10;30.00;;;;;;2248792;61;20404;-69
2021/11/21 03:23:57;0.00;0.00;0.62;0.00;0.00;0.62;10.10;9.10;;;22.10;30.70;;;;;;2249719;61;20432;-69
2021/11/21 03:26:42;0.00;0.00;0.62;0.00;0.00;0.62;10.63;9.50;;;22.10;30.10;;;;;;2248679;61;20377;-69
2021/11/21 03:29:28;0.00;0.00;0.62;0.00;0.00;0.62;10.57;9.30;;;22.10;30.20;;;;;;2249229;61;20369;-69
2021/11/21 03:32:13;0.00;0.00;0.62;0.00;0.00;0.62;9.87;8.87;;;22.10;30.20;;;;;;2249902;61;20463;-69
2021/11/21 03:34:58;0.00;0.00;0.62;0.00;0.00;0.62;10.20;9.17;;;22.10;30.20;;;;;;2248530;61;20685;-69
2021/11/21 03:37:43;0.00;0.00;0.62;0.00;0.00;0.62;11.37;10.17;;;22.10;30.20;;;;;;2249914;61;20356;-69
2021/11/21 03:40:29;0.00;0.00;0.62;0.00;0.00;0.62;10.43;9.43;;;22.10;30.10;;;;;;2249665;61;20368;-70
2021/11/21 03:43:13;0.00;0.00;0.62;0.00;0.00;0.62;10.87;9.87;;;22.10;30.20;;;;;;2248510;61;20426;-67
2021/11/21 03:46:00;0.00;0.00;0.62;0.00;0.00;0.62;11.50;10.30;;;22.10;30.10;;;;;;2249801;61;20412;-69
2021/11/21 03:48:45;0.00;0.00;0.62;0.00;0.00;0.62;11.20;10.00;;;22.10;30.10;;;;;;2249071;61;20825;-69
2021/11/21 03:51:31;0.00;0.00;0.62;0.00;0.00;0.62;10.10;9.10;;;22.00;30.00;;;;;;2249144;61;20365;-69
2021/11/21 03:54:15;0.00;0.00;0.62;0.00;0.00;0.62;10.13;9.13;;;22.00;30.10;;;;;;2249724;61;20408;-68
2021/11/21 03:57:02;0.00;0.00;0.62;0.00;0.00;0.62;10.80;9.70;;;22.00;30.10;;;;;;2248896;61;20368;-69
2021/11/21 03:59:47;0.00;0.00;0.62;0.00;0.00;0.62;9.37;8.37;;;22.00;30.10;;;;;;2249422;61;20438;-69
2021/11/21 04:02:33;0.00;0.00;0.62;0.00;0.00;0.62;10.83;9.73;;;22.00;30.20;;;;;;2249566;61;20384;-69
2021/11/21 04:05:18;0.00;0.00;0.62;0.00;0.00;0.62;10.53;9.43;;;22.00;30.10;;;;;;2248266;61;20396;-69
2021/11/21 04:08:04;0.00;0.00;0.62;0.00;0.00;0.62;11.20;9.67;;;22.00;30.10;;;;;;2249557;61;20368;-69
2021/11/21 04:10:49;0.00;0.00;0.62;0.00;0.00;0.62;12.30;10.60;;;22.00;30.10;;;;;;2249293;61;20361;-69
2021/11/21 04:13:34;0.00;0.00;0.62;0.00;0.00;0.62;11.33;9.50;;;22.00;30.00;;;;;;2249049;61;20388;-67
2021/11/21 04:16:19;0.00;0.00;0.62;0.00;0.00;0.62;10.40;9.33;;;21.90;30.00;;;;;;2249595;61;20424;-69
2021/11/21 04:19:06;0.00;0.00;0.62;0.00;0.00;0.62;10.63;9.57;;;21.90;30.00;;;;;;2248895;61;20485;-69
2021/11/21 04:21:51;0.00;0.00;0.62;0.00;0.00;0.62;10.03;9.03;;;21.90;30.00;;;;;;2249371;61;20388;-69
2021/11/21 04:24:35;0.00;0.00;0.62;0.00;0.00;0.62;9.87;8.87;;;21.90;30.00;;;;;;2249453;61;20353;-67
2021/11/21 04:27:20;0.00;0.00;0.62;0.00;0.00;0.62;10.27;9.17;;;21.90;30.00;;;;;;2248114;61;20567;-69
2021/11/21 04:30:07;0.00;0.00;0.62;0.00;0.00;0.62;10.10;8.93;;;21.80;30.00;;;;;;2249275;61;20825;-69
2021/11/21 04:32:52;0.00;0.00;0.62;0.00;0.00;0.62;10.70;9.37;;;21.80;30.00;;;;;;2249379;61;20377;-67
2021/11/21 04:35:39;0.00;0.00;0.62;0.00;0.00;0.62;10.13;9.13;;;21.80;30.00;;;;;;2248782;61;20384;-69
2021/11/21 04:38:24;0.00;0.00;0.62;0.00;0.00;0.62;9.53;8.30;;;21.80;30.00;;;;;;2249607;61;20396;-69
2021/11/21 04:41:09;0.00;0.00;0.62;0.00;0.00;0.62;8.17;7.37;;;21.80;30.00;;;;;;2248782;61;20365;-69
2021/11/21 04:43:57;0.00;0.00;0.62;0.00;0.00;0.62;9.83;8.83;;;21.80;30.00;;;;;;2248967;61;20449;-69
2021/11/21 04:46:41;0.00;0.00;0.62;0.00;0.00;0.62;10.27;9.20;;;21.70;30.00;;;;;;2249332;61;20400;-68
2021/11/21 04:49:27;0.00;0.00;0.62;0.00;0.00;0.62;9.17;8.23;;;21.70;30.00;;;;;;2248178;61;20356;-69
2021/11/21 04:52:13;0.00;0.00;0.62;0.00;0.00;0.62;9.57;8.33;;;21.70;30.00;;;;;;2249420;61;20381;-68
2021/11/21 04:54:57;0.00;0.00;0.62;0.00;0.00;0.62;9.40;8.40;;;21.70;30.00;;;;;;2249109;61;20384;-69
2021/11/21 04:57:43;0.00;0.00;0.62;0.00;0.00;0.62;10.00;8.67;;;21.70;30.00;;;;;;2248686;61;20365;-68
2021/11/21 05:00:29;0.00;0.00;0.62;0.00;0.00;0.62;8.70;7.80;;;21.60;30.00;;;;;;2249410;61;20357;-68
2021/11/21 05:03:14;0.00;0.00;0.62;0.00;0.00;0.62;7.77;6.97;;;21.60;30.00;;;;;;2248763;61;20360;-68
2021/11/21 05:05:59;0.00;0.00;0.62;0.00;0.00;0.62;7.90;7.07;;;21.60;30.10;;;;;;2248681;61;20820;-69
2021/11/21 05:08:45;0.00;0.00;0.62;0.00;0.00;0.62;8.30;7.50;;;21.60;30.10;;;;;;2249386;61;20472;-69
2021/11/21 05:11:31;0.00;0.00;0.62;0.00;0.00;0.62;10.30;8.70;;;21.60;30.10;;;;;;2247875;61;20446;-68
2021/11/21 05:14:18;0.00;0.00;0.62;0.00;0.00;0.62;9.90;8.13;;;21.60;30.20;;;;;;2249501;61;20716;-68
2021/11/21 05:17:03;0.00;0.00;0.62;0.00;0.00;0.62;9.03;7.37;;;21.60;30.10;;;;;;2249212;61;20393;-69
2021/11/21 05:19:49;0.00;0.00;0.62;0.00;0.00;0.62;8.70;7.67;;;21.60;30.20;;;;;;2248378;61;20628;-68
2021/11/21 05:22:33;0.00;0.00;0.62;0.00;0.00;0.62;8.53;7.70;;;21.60;30.20;;;;;;2249540;61;20557;-69
2021/11/21 05:25:19;0.00;0.00;0.62;0.00;0.00;0.62;8.10;7.30;;;21.50;30.10;;;;;;2248632;61;20388;-69
2021/11/21 05:28:04;0.00;0.00;0.62;0.00;0.00;0.62;8.33;7.30;;;21.50;30.20;;;;;;2248894;61;20376;-69
2021/11/21 05:30:50;0.00;0.00;0.62;0.00;0.00;0.62;8.43;7.53;;;21.50;30.10;;;;;;2249654;61;20764;-69
2021/11/21 05:33:34;0.00;0.00;0.62;0.00;0.00;0.62;8.10;7.07;;;21.50;30.20;;;;;;2247826;61;20381;-69
2021/11/21 05:36:20;0.00;0.00;0.62;0.00;0.00;0.62;9.10;8.20;;;21.50;30.20;;;;;;2249489;61;20436;-67
2021/11/21 05:39:05;0.00;0.00;0.62;0.00;0.00;0.62;8.33;7.10;;;21.50;30.20;;;;;;2249546;61;20360;-67
2021/11/21 05:41:51;0.00;0.00;0.62;0.00;0.00;0.62;7.87;7.07;;;21.50;30.30;;;;;;2248329;61;20605;-67
2021/11/21 05:44:36;0.00;0.00;0.62;0.00;0.00;0.62;6.80;6.10;;;21.50;30.30;;;;;;2249491;61;20448;-69
2021/11/21 05:47:21;0.00;0.00;0.62;0.00;0.00;0.62;6.73;5.87;;;21.50;30.30;;;;;;2248323;61;20441;-69
2021/11/21 05:50:12;0.00;0.00;0.62;0.00;0.00;0.62;7.43;6.70;;;21.50;30.30;;;;;;2249057;61;20393;-67
2021/11/21 05:52:57;0.00;0.00;0.62;0.00;0.00;0.62;7.30;6.60;;;21.50;30.30;;;;;;2249604;61;20391;-70
2021/11/21 05:55:42;0.00;0.00;0.62;0.00;0.00;0.62;7.77;6.80;;;21.50;30.30;;;;;;2247987;61;20376;-69
2021/11/21 05:58:28;0.00;0.00;0.62;0.00;0.00;0.62;7.20;6.50;;;21.50;30.30;;;;;;2249560;61;20473;-69
2021/11/21 06:01:13;0.00;0.00;0.62;0.00;0.00;0.62;6.93;6.23;;;21.50;30.40;;;;;;2249425;61;20361;-69
2021/11/21 06:03:58;0.00;0.00;0.62;0.00;0.00;0.62;7.70;6.33;;;21.60;30.40;;;;;;2248233;61;20364;-69
2021/11/21 06:06:43;0.00;0.00;0.62;0.00;0.00;0.62;7.00;6.30;;;21.50;30.40;;;;;;2249480;61;20379;-68
2021/11/21 06:09:28;0.00;0.00;0.62;0.00;0.00;0.62;5.97;5.37;;;21.50;30.30;;;;;;2248608;61;20438;-69
2021/11/21 06:12:13;0.00;0.00;0.62;0.00;0.00;0.62;6.70;5.73;;;21.50;30.30;;;;;;2248775;61;20400;-68
2021/11/21 06:14:59;0.00;0.00;0.62;0.00;0.00;0.62;7.20;6.13;;;21.50;30.40;;;;;;2249397;61;20380;-69
2021/11/21 06:17:45;0.00;0.00;0.62;0.00;0.00;0.62;7.80;7.00;;;21.60;30.40;;;;;;2248399;61;20411;-68
2021/11/21 06:20:30;0.00;0.00;0.62;0.00;0.00;0.62;5.77;5.13;;;21.50;30.30;;;;;;2249567;61;20433;-69
2021/11/21 06:23:15;0.00;0.00;0.62;0.00;0.00;0.62;6.23;5.63;;;21.50;30.30;;;;;;2249725;61;20388;-69
2021/11/21 06:26:00;0.00;0.00;0.62;0.00;0.00;0.62;8.37;6.50;;;21.50;30.40;;;;;;2248955;61;20487;-68
2021/11/21 06:28:45;0.00;0.00;0.62;0.00;0.00;0.62;8.33;7.43;;;21.50;30.30;;;;;;2250127;61;20356;-69
2021/11/21 06:31:33;0.00;0.00;0.62;0.00;0.00;0.62;6.70;5.70;;;21.50;30.40;;;;;;2249583;61;20396;-67
2021/11/21 06:34:18;0.00;0.00;0.62;0.00;0.00;0.62;6.63;5.90;;;21.50;30.40;;;;;;2249402;61;20431;-69
2021/11/21 06:37:06;0.00;0.00;0.62;0.00;0.00;0.62;8.90;7.27;;;21.50;30.40;;;;;;2250109;61;20403;-69
2021/11/21 06:39:51;0.00;0.00;0.62;0.00;0.00;0.62;9.50;7.70;;;21.50;30.40;;;;;;2249499;61;20356;-69
2021/11/21 06:42:36;0.00;0.00;0.62;0.00;0.00;0.62;8.47;7.67;;;21.50;30.40;;;;;;2250044;61;20424;-68
2021/11/21 06:45:21;0.00;0.00;0.62;0.00;0.00;0.62;8.90;7.30;;;21.50;30.30;;;;;;2249753;61;20392;-69
2021/11/21 06:48:12;0.00;0.00;0.62;0.00;0.00;0.62;6.53;5.70;;;21.40;30.30;;;;;;2248514;61;20404;-68
2021/11/21 06:50:57;0.00;0.00;0.62;0.00;0.00;0.62;7.57;6.63;;;21.50;30.50;;;;;;2249909;61;20777;-69
2021/11/21 06:53:45;0.00;0.00;0.62;0.00;0.00;0.62;7.47;6.70;;;21.40;30.40;;;;;;2249304;61;20764;-69
2021/11/21 06:56:30;0.00;0.00;0.62;0.00;0.00;0.62;7.60;6.80;;;21.40;31.10;;;;;;2249248;61;20368;-69
2021/11/21 06:59:16;0.00;0.00;0.62;0.00;0.00;0.62;7.73;6.73;;;21.40;30.50;;;;;;2249763;61;20364;-67
2021/11/21 07:02:01;0.00;0.00;0.62;0.00;0.00;0.62;8.10;7.27;;;21.40;30.50;;;;;;2249038;61;20357;-69
2021/11/21 07:04:49;0.00;0.00;0.62;0.00;0.00;0.62;7.00;5.73;;;21.40;30.50;;;;;;2249593;61;20496;-69
2021/11/21 07:07:35;0.00;0.00;0.62;0.00;0.00;0.62;6.50;5.83;;;21.40;30.60;;;;;;2249638;61;20468;-68
2021/11/21 07:10:20;0.00;0.00;0.62;0.00;0.00;0.62;7.30;6.20;;;21.40;30.50;;;;;;2248136;61;20720;-67
2021/11/21 07:13:05;0.00;0.00;0.62;0.00;0.00;0.62;7.10;6.40;;;21.40;30.70;;;;;;2249707;61;20468;-69
2021/11/21 07:15:50;0.00;0.00;0.62;0.00;0.00;0.62;7.40;6.10;;;21.40;30.60;;;;;;2249357;61;20604;-69
2021/11/21 07:18:35;0.00;0.00;0.62;0.00;0.00;0.62;5.93;5.33;;;21.30;30.50;;;;;;2249308;61;20360;-68
2021/11/21 07:21:21;0.00;0.00;0.62;0.00;0.00;0.62;5.47;4.93;;;21.30;30.50;;;;;;2249766;61;20620;-68
2021/11/21 07:24:06;0.00;0.00;0.62;0.00;0.00;0.62;5.57;4.80;;;21.30;30.60;;;;;;2249010;61;20436;-68
2021/11/21 07:26:54;0.00;0.00;0.62;0.00;0.00;0.62;5.63;5.03;;;21.30;30.60;;;;;;2249436;61;20372;-69
2021/11/21 07:29:39;0.00;0.00;0.62;0.00;0.00;0.62;5.20;4.70;;;21.30;30.60;;;;;;2250012;61;20592;-67
2021/11/21 07:32:24;0.00;0.00;0.62;0.00;0.00;0.62;5.83;5.20;;;21.30;30.60;;;;;;2248049;61;20384;-67
2021/11/21 07:35:10;0.00;0.00;0.62;0.00;0.00;0.62;6.53;5.50;;;21.30;30.60;;;;;;2249737;61;20377;-69
2021/11/21 07:37:56;0.00;0.00;0.62;0.00;0.00;0.62;5.93;5.00;;;21.30;30.60;;;;;;2249646;61;20585;-69
2021/11/21 07:40:41;0.00;0.00;0.62;0.00;0.00;0.62;5.60;4.33;;;21.30;30.60;;;;;;2248965;61;20368;-69
2021/11/21 07:43:26;0.00;0.00;0.62;0.00;0.00;0.62;5.10;4.50;;;21.30;30.60;;;;;;2249415;61;20722;-69
2021/11/21 07:46:11;0.00;0.00;0.62;0.00;0.00;0.62;5.40;4.90;;;21.30;30.70;;;;;;2249110;61;20392;-68
2021/11/21 07:48:56;0.00;0.00;0.62;0.00;0.00;0.62;5.33;4.80;;;21.30;30.70;;;;;;2249465;61;20712;-69
2021/11/21 07:51:41;0.00;0.00;0.62;0.00;0.00;0.62;5.87;5.03;;;21.30;30.70;;;;;;2249971;61;20504;-69
2021/11/21 07:54:27;0.00;0.00;0.62;0.00;0.00;0.62;4.23;3.33;;;21.30;30.70;;;;;;2248391;61;20941;-69
2021/11/21 07:57:12;0.00;0.00;0.62;0.00;0.00;0.62;4.87;4.10;;;21.30;30.70;;;;;;2249911;61;20361;-69
2021/11/21 07:59:57;0.00;0.00;0.62;0.00;0.00;0.62;4.27;3.73;;;21.30;30.70;;;;;;2249706;61;20416;-69
2021/11/21 08:02:42;0.00;0.00;0.62;0.00;0.00;0.62;4.17;3.67;;;21.30;30.70;;;;;;2248789;61;20384;-69
2021/11/21 08:05:27;0.00;0.00;0.62;0.00;0.00;0.62;4.93;4.43;;;21.30;30.80;;;;;;2249458;61;20735;-69
2021/11/21 08:08:12;0.00;0.00;0.62;0.00;0.00;0.62;4.47;3.90;;;21.30;30.80;;;;;;2248720;61;20437;-67
2021/11/21 08:10:59;0.00;0.00;0.62;0.00;0.00;0.62;4.37;3.80;;;21.30;30.80;;;;;;2249025;61;20353;-68
2021/11/21 08:13:43;0.00;0.00;0.62;0.00;0.00;0.62;4.57;4.00;;;21.20;30.60;;;;;;2249579;61;20401;-69
2021/11/21 08:16:28;0.00;0.00;0.62;0.00;0.00;0.62;4.83;3.97;;;21.30;30.80;;;;;;2248237;61;20945;-67
2021/11/21 08:19:13;0.00;0.00;0.62;0.00;0.00;0.62;4.87;4.23;;;21.20;30.70;;;;;;2249670;61;20361;-65
2021/11/21 08:21:59;0.00;0.00;0.62;0.00;0.00;0.62;4.60;4.10;;;21.20;30.70;;;;;;2249173;61;20740;-69
2021/11/21 08:24:43;0.00;0.00;0.62;0.00;0.00;0.62;5.20;4.07;;;21.20;30.70;;;;;;2248306;61;20444;-70
2021/11/21 08:27:29;0.00;0.00;0.62;0.00;0.00;0.62;4.43;3.80;;;21.20;31.50;;;;;;2249539;61;20361;-73
2021/11/21 08:30:14;0.00;0.00;0.62;0.00;0.00;0.62;4.43;3.73;;;21.20;30.90;;;;;;2249066;61;20588;-71
2021/11/21 08:32:59;0.00;0.00;0.62;0.00;0.00;0.62;3.70;3.30;;;21.20;31.00;;;;;;2249136;61;20416;-69
2021/11/21 08:35:45;0.00;0.00;0.62;0.00;0.00;0.62;4.67;3.93;;;21.20;31.00;;;;;;2249830;61;20380;-67
2021/11/21 08:38:29;0.00;0.00;0.62;0.00;0.00;0.62;4.90;4.40;;;21.20;31.00;;;;;;2248590;61;20356;-70
2021/11/21 08:41:14;0.00;0.00;0.62;0.00;0.00;0.62;4.50;3.43;;;21.20;31.00;;;;;;2249711;61;20725;-67
2021/11/21 08:44:01;0.00;0.00;0.62;0.00;0.00;0.62;4.70;4.20;;;21.10;30.90;;;;;;2249601;61;20460;-71
2021/11/21 08:46:46;0.00;0.00;0.62;0.00;0.00;0.62;4.27;3.43;;;21.10;30.90;;;;;;2248449;61;20658;-65
2021/11/21 08:49:31;0.00;0.00;0.62;0.00;0.00;0.62;3.77;3.37;;;21.10;30.90;;;;;;2249581;61;20388;-65
2021/11/21 08:52:16;0.00;0.00;0.62;0.00;0.00;0.62;3.93;3.20;;;21.10;31.00;;;;;;2248952;61;20356;-72
2021/11/21 08:55:02;0.00;0.00;0.62;0.00;0.00;0.62;3.83;3.30;;;21.10;31.00;;;;;;2248867;61;20376;-70
2021/11/21 08:57:47;0.00;0.00;0.62;0.00;0.00;0.62;3.43;3.00;;;21.10;31.10;;;;;;2249927;61;20393;-72
2021/11/21 09:00:33;0.00;0.00;0.62;0.00;0.00;0.62;3.73;2.80;;;21.10;31.20;;;;;;2249514;61;20364;-70
2021/11/21 09:03:18;0.00;0.00;0.62;0.00;0.00;0.62;3.30;3.00;;;21.10;31.20;;;;;;2250432;61;20373;-70
2021/11/21 09:06:03;0.00;0.00;0.62;0.00;0.00;0.62;3.20;2.90;;;21.20;32.00;;;;;;2249692;61;20384;-70
2021/11/21 09:08:48;0.00;0.00;0.62;0.00;0.00;0.62;3.57;2.90;;;21.20;31.40;;;;;;2248713;61;20732;-68
2021/11/21 09:11:35;0.00;0.00;0.62;0.00;0.00;0.62;3.20;2.60;;;21.20;31.40;;;;;;2249238;61;20441;-66
2021/11/21 09:14:20;0.00;0.00;0.62;0.00;0.00;0.62;3.10;2.70;;;21.20;31.40;;;;;;2248911;61;20388;-72
2021/11/21 09:17:06;0.00;0.00;0.62;0.00;0.00;0.62;3.90;2.87;;;21.20;31.40;;;;;;2248581;61;20365;-71
2021/11/21 09:19:52;0.00;0.00;0.62;0.00;0.00;0.62;4.07;2.93;;;21.20;31.40;;;;;;2249613;61;20361;-65
2021/11/21 09:22:37;0.00;0.00;0.62;0.00;0.00;0.62;3.20;2.60;;;21.20;31.30;;;;;;2248766;61;20353;-65
2021/11/21 09:25:23;0.00;0.00;0.62;0.00;0.00;0.62;3.30;2.50;;;21.30;31.40;;;;;;2249383;61;20413;-65
2021/11/21 09:28:08;0.00;0.00;0.62;0.00;0.00;0.62;2.90;2.30;;;21.30;31.30;;;;;;2249484;61;20468;-72
2021/11/21 09:30:55;0.00;0.00;0.62;0.00;0.00;0.62;4.13;2.90;;;21.30;31.20;;;;;;2248292;61;20376;-72
2021/11/21 09:33:41;0.00;0.00;0.62;0.00;0.00;0.62;3.23;2.20;;;21.30;31.20;;;;;;2249359;61;20388;-72
2021/11/21 09:36:26;0.00;0.00;0.62;0.00;0.00;0.62;2.63;2.17;;;21.30;31.30;;;;;;2249035;61;20497;-69
2021/11/21 09:39:12;0.00;0.00;0.62;0.00;0.00;0.62;3.80;3.00;;;21.40;31.40;;;;;;2248842;61;20388;-71
2021/11/21 09:41:57;0.00;0.00;0.62;0.00;0.00;0.62;2.73;2.23;;;21.40;31.40;;;;;;2249103;61;20360;-71
2021/11/21 09:44:42;0.00;0.00;0.62;0.00;0.00;0.62;2.70;2.13;;;21.40;31.50;;;;;;2248419;61;20361;-65
2021/11/21 09:51:56;0.00;0.00;0.62;0.00;0.00;0.62;2.27;1.80;;;21.40;31.40;;;;;;2245167;61;20362;-62
2021/11/21 09:54:43;0.00;0.00;0.62;0.00;0.00;0.62;2.60;2.10;;;21.40;31.40;;;;;;2246836;61;20404;-64
2021/11/21 09:57:30;0.00;0.00;0.62;0.00;0.00;0.62;3.23;2.20;;;21.40;31.40;;;;;;2252818;58;20720;-63
2021/11/21 10:00:18;0.00;0.00;0.62;0.00;0.00;0.62;3.03;2.53;;;21.40;31.30;;;;;;2245090;61;20413;-63
2021/11/21 10:03:05;0.00;0.00;0.62;0.00;0.00;0.62;3.20;2.57;;;21.50;31.40;;;;;;2246292;61;20364;-63
2021/11/21 10:05:53;0.00;0.00;0.62;0.00;0.00;0.62;2.40;2.10;;;21.50;31.50;;;;;;2245843;61;20853;-63
2021/11/21 10:08:50;0.00;0.00;0.62;0.00;0.00;0.62;2.90;2.10;;;21.50;31.40;;;;;;2245483;61;20458;-63
2021/11/21 10:12:03;0.00;0.00;0.62;0.00;0.00;0.62;2.30;1.70;;;21.50;31.40;;;;;;2246326;61;20365;-63
2021/11/21 10:15:04;0.00;0.00;0.62;0.00;0.00;0.62;2.57;1.97;;;21.50;31.40;;;;;;2244974;61;20385;-63
2021/11/21 10:17:54;0.00;0.00;0.62;0.00;0.00;0.62;2.47;1.87;;;21.60;31.50;;;;;;2246302;61;20365;-64
2021/11/21 10:20:40;0.00;0.00;0.62;0.00;0.00;0.62;1.90;1.47;;;21.60;31.50;;;;;;2245928;61;20366;-64
2021/11/21 10:23:25;0.00;0.00;0.62;0.00;0.00;0.62;1.60;1.30;;;21.60;31.50;;;;;;2245368;61;20353;-64
2021/11/21 10:26:20;0.00;0.00;0.62;0.00;0.00;0.62;2.07;1.73;;;21.70;31.50;;;;;;2246015;61;20421;-64
2021/11/21 10:29:28;0.00;0.00;0.62;0.00;0.00;0.62;1.90;1.70;;;21.70;31.50;;;;;;2245267;61;20385;-63
2021/11/21 10:32:15;0.00;0.00;0.62;0.00;0.00;0.62;2.20;1.70;;;21.70;31.50;;;;;;2245413;61;20401;-63
2021/11/21 10:35:04;0.00;0.00;0.62;0.00;0.00;0.62;2.83;2.10;;;21.70;31.50;;;;;;2245976;61;20392;-63
2021/11/21 10:37:49;0.00;0.00;0.62;0.00;0.00;0.62;4.50;3.70;;;21.70;31.50;;;;;;2245107;61;20545;-70
2021/11/21 10:40:34;0.00;0.00;0.62;0.00;0.00;0.62;5.30;4.10;;;21.80;31.50;;;;;;2246020;61;20401;-69
2021/11/21 10:43:22;0.00;0.00;0.62;0.00;0.00;0.62;6.00;4.40;;;21.80;32.20;;;;;;2245124;61;20386;-72
2021/11/21 10:46:34;0.00;0.00;0.62;0.00;0.00;0.62;5.03;3.53;;;21.80;31.50;;;;;;2245436;61;20401;-70
2021/11/21 10:49:24;0.00;0.00;0.62;0.00;0.00;0.62;6.17;4.43;;;21.90;31.60;;;;;;2245730;61;20404;-69
2021/11/21 10:52:16;0.00;0.00;0.62;0.00;0.00;0.62;4.53;3.67;;;21.90;31.60;;;;;;2244960;61;20617;-68
2021/11/21 10:55:01;0.00;0.00;0.62;0.00;0.00;0.62;5.17;3.97;;;21.90;31.60;;;;;;2242549;61;20615;-66
2021/11/21 10:57:46;0.00;0.00;0.62;0.00;0.00;0.62;4.67;3.80;;;21.90;31.60;;;;;;2245647;61;20369;-74
2021/11/21 11:00:32;0.00;0.00;0.62;0.00;0.00;0.62;4.13;3.10;;;22.00;31.70;;;;;;2245354;61;20352;-71